createdAt,value
2022-11-27T00:01:00.249Z,81.76
2022-11-27T00:03:27.049Z,81.61
2022-11-27T00:05:56.093Z,81.52
2022-11-27T00:08:24.109Z,81.55
2022-11-27T00:10:50.894Z,81.96
2022-11-27T00:13:17.612Z,81.93
2022-11-27T00:15:44.340Z,81.73
2022-11-27T00:18:10.909Z,81.96
2022-11-27T00:20:37.420Z,81.84
2022-11-27T00:23:04.339Z,82.06
2022-11-27T00:25:30.907Z,82.01
2022-11-27T00:27:57.455Z,81.97
2022-11-27T00:30:24.042Z,81.84
2022-11-27T00:32:50.554Z,81.93
2022-11-27T00:35:17.096Z,81.94
2022-11-27T00:37:43.676Z,81.59
2022-11-27T00:40:10.674Z,81.45
2022-11-27T00:42:37.162Z,81.81
2022-11-27T00:45:03.975Z,81.51
2022-11-27T00:47:30.485Z,81.63
2022-11-27T00:49:57.227Z,81.86
2022-11-27T00:52:23.738Z,81.58
2022-11-27T00:54:50.746Z,81.66
2022-11-27T00:57:17.226Z,81.85
2022-11-27T00:59:43.811Z,81.96
2022-11-27T01:02:10.397Z,81.90
2022-11-27T01:04:37.015Z,81.97
2022-11-27T01:07:03.739Z,81.79
2022-11-27T01:09:30.247Z,82.07
2022-11-27T01:11:56.800Z,81.89
2022-11-27T01:14:23.359Z,81.70
2022-11-27T01:16:49.895Z,81.88
2022-11-27T01:19:16.463Z,81.71
2022-11-27T01:21:43.186Z,82.48
2022-11-27T01:24:12.309Z,82.03
2022-11-27T01:26:38.969Z,81.75
2022-11-27T01:29:05.796Z,82.11
2022-11-27T01:31:33.933Z,82.33
2022-11-27T01:34:03.436Z,82.24
2022-11-27T01:36:30.906Z,83.08
2022-11-27T01:38:58.131Z,82.68
2022-11-27T01:41:31.198Z,82.31
2022-11-27T01:43:59.265Z,82.53
2022-11-27T01:46:32.297Z,82.62
2022-11-27T01:49:11.033Z,83.00
2022-11-27T01:51:47.244Z,83.03
2022-11-27T01:54:16.339Z,83.22
2022-11-27T01:56:46.333Z,83.14
2022-11-27T01:59:13.397Z,83.38
2022-11-27T02:01:40.156Z,83.20
2022-11-27T02:04:06.678Z,83.16
2022-11-27T02:06:33.238Z,83.23
2022-11-27T02:08:59.808Z,83.16
2022-11-27T02:12:05.810Z,83.11
2022-11-27T02:14:45.006Z,83.07
2022-11-27T02:17:28.160Z,83.33
2022-11-27T02:20:15.284Z,83.40
2022-11-27T02:23:19.649Z,83.35
2022-11-27T02:26:24.974Z,83.07
2022-11-27T02:29:05.614Z,83.18
2022-11-27T02:31:46.616Z,83.14
2022-11-27T02:34:21.758Z,83.63
2022-11-27T02:36:57.735Z,83.51
2022-11-27T02:39:32.437Z,82.93
2022-11-27T02:42:15.726Z,83.40
2022-11-27T02:44:47.788Z,83.19
2022-11-27T02:47:14.812Z,83.18
2022-11-27T02:49:43.749Z,83.12
2022-11-27T02:52:12.987Z,83.29
2022-11-27T02:54:42.170Z,83.11
2022-11-27T02:57:10.034Z,83.37
2022-11-27T02:59:37.988Z,83.43
2022-11-27T03:02:11.822Z,83.23
2022-11-27T03:04:44.638Z,83.09
2022-11-27T03:07:35.983Z,83.21
2022-11-27T03:10:09.822Z,82.86
2022-11-27T03:12:37.028Z,82.99
2022-11-27T03:15:04.555Z,83.36
2022-11-27T03:17:51.754Z,83.00
2022-11-27T03:20:25.736Z,82.89
2022-11-27T03:22:55.793Z,83.20
2022-11-27T03:25:23.849Z,83.26
2022-11-27T03:27:56.836Z,83.45
2022-11-27T03:30:23.357Z,83.00
2022-11-27T03:32:49.930Z,83.47
2022-11-27T03:35:20.196Z,83.47
2022-11-27T03:37:46.930Z,83.60
2022-11-27T03:40:13.968Z,83.25
2022-11-27T03:42:47.424Z,83.42
2022-11-27T03:45:16.514Z,83.33
2022-11-27T03:48:06.399Z,83.42
2022-11-27T03:50:44.852Z,83.40
2022-11-27T03:53:33.329Z,83.39
2022-11-27T03:56:15.588Z,83.43
2022-11-27T03:58:51.078Z,82.98
2022-11-27T04:01:21.275Z,83.22
2022-11-27T04:03:47.899Z,83.30
2022-11-27T04:06:14.653Z,83.12
2022-11-27T04:08:41.844Z,83.17
2022-11-27T04:11:09.073Z,82.97
2022-11-27T04:13:35.820Z,82.84
2022-11-27T04:16:02.981Z,83.03
2022-11-27T04:18:30.028Z,83.21
2022-11-27T04:20:56.874Z,83.10
2022-11-27T04:23:23.405Z,82.89
2022-11-27T04:25:49.973Z,82.82
2022-11-27T04:28:19.569Z,82.88
2022-11-27T04:30:51.739Z,82.60
2022-11-27T04:33:18.445Z,82.92
2022-11-27T04:35:45.199Z,82.62
2022-11-27T04:38:11.974Z,83.12
2022-11-27T04:40:38.645Z,82.62
2022-11-27T04:43:05.133Z,83.31
2022-11-27T04:45:31.768Z,83.17
2022-11-27T04:47:58.328Z,82.92
2022-11-27T04:50:24.851Z,82.62
2022-11-27T04:52:51.424Z,82.92
2022-11-27T04:55:18.042Z,82.82
2022-11-27T04:57:44.572Z,83.19
2022-11-27T05:00:11.927Z,82.53
2022-11-27T05:02:38.561Z,82.65
2022-11-27T05:05:05.325Z,82.41
2022-11-27T05:07:32.028Z,82.69
2022-11-27T05:09:58.628Z,82.93
2022-11-27T05:12:25.112Z,82.41
2022-11-27T05:14:51.686Z,82.39
2022-11-27T05:17:18.260Z,82.27
2022-11-27T05:19:44.778Z,82.24
2022-11-27T05:22:11.307Z,82.11
2022-11-27T05:24:38.072Z,82.57
2022-11-27T05:27:04.707Z,82.42
2022-11-27T05:29:31.394Z,82.65
2022-11-27T05:31:58.250Z,82.47
2022-11-27T05:34:24.927Z,82.43
2022-11-27T05:36:51.600Z,82.24
2022-11-27T05:39:18.145Z,82.53
2022-11-27T05:41:44.717Z,82.97
2022-11-27T05:44:15.314Z,82.50
2022-11-27T05:46:45.318Z,82.81
2022-11-27T05:49:14.129Z,82.91
2022-11-27T05:51:40.801Z,82.62
2022-11-27T05:54:07.670Z,82.72
2022-11-27T05:56:34.173Z,83.03
2022-11-27T05:59:00.770Z,84.51
2022-11-27T06:01:27.432Z,84.31
2022-11-27T06:03:53.956Z,83.67
2022-11-27T06:06:21.216Z,81.78
2022-11-27T06:08:48.359Z,79.92
2022-11-27T06:11:20.546Z,78.13
2022-11-27T06:13:48.835Z,75.90
2022-11-27T06:16:18.004Z,74.49
2022-11-27T06:18:45.380Z,74.04
2022-11-27T06:21:14.190Z,73.74
2022-11-27T06:23:42.466Z,72.68
2022-11-27T06:26:17.815Z,72.96
2022-11-27T06:28:45.873Z,71.56
2022-11-27T06:31:18.076Z,71.93
2022-11-27T06:33:46.554Z,70.81
2022-11-27T06:36:13.283Z,70.06
2022-11-27T06:38:39.932Z,69.65
2022-11-27T06:41:12.596Z,68.88
2022-11-27T06:43:39.832Z,67.94
2022-11-27T06:46:08.198Z,68.65
2022-11-27T06:48:34.827Z,68.06
2022-11-27T06:51:02.926Z,68.82
2022-11-27T06:53:30.945Z,69.46
2022-11-27T06:55:57.832Z,68.92
2022-11-27T06:58:30.619Z,69.68
2022-11-27T07:01:02.807Z,70.78
2022-11-27T07:03:29.387Z,71.95
2022-11-27T07:05:59.146Z,72.73
2022-11-27T07:08:25.754Z,73.76
2022-11-27T07:10:52.427Z,74.22
2022-11-27T07:13:18.917Z,74.70
2022-11-27T07:15:45.509Z,75.42
2022-11-27T07:18:12.083Z,75.52
2022-11-27T07:20:38.678Z,76.03
2022-11-27T07:23:05.181Z,76.82
2022-11-27T07:25:31.717Z,77.06
2022-11-27T07:27:58.260Z,76.98
2022-11-27T07:30:24.821Z,77.16
2022-11-27T07:32:51.320Z,77.27
2022-11-27T07:35:18.178Z,77.57
2022-11-27T07:37:44.728Z,77.64
2022-11-27T07:40:11.482Z,78.33
2022-11-27T07:42:38.922Z,77.95
2022-11-27T07:45:08.123Z,77.98
2022-11-27T07:47:34.626Z,78.54
2022-11-27T07:50:01.306Z,78.53
2022-11-27T07:52:28.131Z,78.61
2022-11-27T07:54:54.737Z,78.58
2022-11-27T07:57:21.393Z,79.21
2022-11-27T07:59:48.129Z,79.15
2022-11-27T08:02:15.104Z,78.99
2022-11-27T08:04:42.053Z,78.84
2022-11-27T08:07:08.892Z,78.90
2022-11-27T08:09:35.525Z,79.10
2022-11-27T08:12:02.185Z,79.41
2022-11-27T08:14:29.047Z,79.52
2022-11-27T08:16:56.057Z,79.40
2022-11-27T08:19:22.945Z,79.32
2022-11-27T08:21:49.651Z,79.40
2022-11-27T08:24:16.511Z,79.22
2022-11-27T08:26:43.213Z,79.40
2022-11-27T08:29:13.268Z,79.43
2022-11-27T08:31:40.077Z,79.44
2022-11-27T08:34:06.749Z,79.14
2022-11-27T08:36:33.419Z,79.06
2022-11-27T08:39:00.039Z,78.93
2022-11-27T08:41:26.574Z,78.65
2022-11-27T08:43:53.089Z,79.09
2022-11-27T08:46:19.699Z,78.55
2022-11-27T08:48:46.333Z,78.95
2022-11-27T08:51:15.468Z,78.96
2022-11-27T08:53:44.534Z,79.11
2022-11-27T08:56:19.961Z,78.90
2022-11-27T08:58:47.185Z,78.42
2022-11-27T09:01:22.323Z,78.50
2022-11-27T09:03:49.300Z,78.62
2022-11-27T09:06:19.043Z,78.45
2022-11-27T09:08:46.053Z,78.78
2022-11-27T09:11:14.182Z,78.40
2022-11-27T09:13:41.920Z,78.57
2022-11-27T09:16:11.910Z,77.85
2022-11-27T09:18:39.127Z,77.73
2022-11-27T09:21:08.680Z,77.35
2022-11-27T09:23:35.927Z,77.31
2022-11-27T09:26:04.572Z,77.41
2022-11-27T09:28:33.075Z,77.44
2022-11-27T09:31:01.508Z,77.18
2022-11-27T09:33:30.400Z,77.01
2022-11-27T09:35:57.580Z,76.68
2022-11-27T09:38:24.460Z,77.06
2022-11-27T09:40:52.978Z,76.81
2022-11-27T09:43:29.760Z,76.95
2022-11-27T09:46:04.071Z,77.02
2022-11-27T09:48:42.760Z,76.62
2022-11-27T09:51:19.666Z,76.74
2022-11-27T09:53:51.713Z,76.57
2022-11-27T09:56:18.956Z,76.69
2022-11-27T09:58:55.326Z,76.35
2022-11-27T10:01:33.640Z,76.44
2022-11-27T10:04:06.460Z,76.07
2022-11-27T10:06:44.293Z,75.88
2022-11-27T10:10:00.148Z,75.78
2022-11-27T10:13:04.886Z,75.47
2022-11-27T10:16:00.390Z,75.22
2022-11-27T10:18:38.855Z,74.82
2022-11-27T10:21:19.120Z,74.67
2022-11-27T10:24:05.850Z,74.51
2022-11-27T10:26:41.185Z,74.47
2022-11-27T10:29:47.259Z,74.40
2022-11-27T10:35:26.631Z,73.33
2022-11-27T10:37:56.056Z,72.81
2022-11-27T10:40:42.827Z,72.69
2022-11-27T10:43:25.573Z,71.97
2022-11-27T10:46:02.158Z,71.75
2022-11-27T10:48:29.681Z,71.62
2022-11-27T10:50:57.047Z,71.71
2022-11-27T10:53:31.367Z,71.19
2022-11-27T10:56:07.993Z,71.02
2022-11-27T10:58:43.145Z,70.98
2022-11-27T11:01:14.955Z,70.86
2022-11-27T11:03:41.735Z,70.48
2022-11-27T11:06:22.677Z,70.76
2022-11-27T11:09:02.693Z,70.75
2022-11-27T11:11:29.244Z,70.56
2022-11-27T11:13:55.835Z,70.42
2022-11-27T11:16:29.390Z,70.33
2022-11-27T11:19:01.506Z,70.35
2022-11-27T11:21:34.609Z,69.82
2022-11-27T11:24:06.758Z,70.10
2022-11-27T11:26:40.805Z,69.95
2022-11-27T11:29:26.789Z,69.84
2022-11-27T11:31:55.890Z,69.42
2022-11-27T11:34:26.394Z,69.52
2022-11-27T11:37:01.428Z,69.28
2022-11-27T11:39:32.024Z,69.19
2022-11-27T11:41:59.030Z,68.05
2022-11-27T11:44:35.691Z,68.50
2022-11-27T11:47:02.204Z,68.33
2022-11-27T11:49:31.531Z,68.10
2022-11-27T11:52:28.875Z,67.94
2022-11-27T11:55:07.701Z,68.11
2022-11-27T11:57:51.935Z,67.92
2022-11-27T12:00:29.825Z,68.00
2022-11-27T12:03:06.849Z,68.04
2022-11-27T12:05:54.401Z,68.07
2022-11-27T12:08:49.898Z,68.25
2022-11-27T12:11:25.839Z,68.98
2022-11-27T12:13:58.795Z,68.69
2022-11-27T12:16:41.792Z,68.45
2022-11-27T12:19:11.269Z,68.95
2022-11-27T12:21:55.820Z,68.61
2022-11-27T12:24:49.062Z,68.71
2022-11-27T12:27:39.570Z,68.99
2022-11-27T12:30:12.757Z,68.98
2022-11-27T12:33:04.861Z,69.09
2022-11-27T12:35:49.830Z,69.63
2022-11-27T12:38:36.144Z,69.65
2022-11-27T12:41:17.680Z,69.71
2022-11-27T12:43:49.167Z,69.44
2022-11-27T12:46:26.935Z,69.66
2022-11-27T12:49:10.371Z,69.58
2022-11-27T12:52:11.863Z,69.78
2022-11-27T12:54:47.617Z,69.18
2022-11-27T12:57:27.395Z,69.15
2022-11-27T13:00:05.907Z,68.79
2022-11-27T13:02:38.378Z,68.56
2022-11-27T13:05:15.459Z,68.47
2022-11-27T13:08:09.794Z,68.32
2022-11-27T13:10:36.538Z,68.67
2022-11-27T13:13:14.349Z,68.78
2022-11-27T13:15:45.879Z,68.39
2022-11-27T13:18:40.044Z,68.19
2022-11-27T13:21:18.425Z,67.99
2022-11-27T13:23:45.021Z,68.46
2022-11-27T13:26:29.957Z,68.64
2022-11-27T13:29:04.141Z,69.12
2022-11-27T13:31:35.991Z,68.72
2022-11-27T13:34:07.727Z,68.56
2022-11-27T13:36:38.738Z,68.61
2022-11-27T13:39:06.213Z,69.01
2022-11-27T13:41:40.022Z,69.05
2022-11-27T13:44:24.681Z,69.26
2022-11-27T13:46:56.485Z,69.14
2022-11-27T13:49:34.696Z,68.92
2022-11-27T13:52:08.047Z,68.74
2022-11-27T13:54:34.672Z,69.16
2022-11-27T13:57:30.860Z,68.81
2022-11-27T13:59:58.982Z,69.11
2022-11-27T14:02:39.100Z,68.91
2022-11-27T14:05:05.927Z,68.74
2022-11-27T14:07:38.165Z,68.56
2022-11-27T14:10:27.193Z,68.93
2022-11-27T14:12:57.833Z,68.93
2022-11-27T14:15:26.423Z,69.09
2022-11-27T14:18:04.777Z,69.15
2022-11-27T14:20:35.240Z,69.17
2022-11-27T14:23:17.274Z,69.30
2022-11-27T14:25:43.865Z,69.61
2022-11-27T14:28:16.175Z,69.37
2022-11-27T14:30:52.639Z,69.86
2022-11-27T14:33:30.973Z,69.69
2022-11-27T14:36:03.528Z,69.76
2022-11-27T14:38:32.763Z,70.06
2022-11-27T14:41:19.569Z,70.35
2022-11-27T14:43:46.461Z,70.61
2022-11-27T14:46:21.981Z,70.39
2022-11-27T14:48:55.017Z,70.54
2022-11-27T14:51:24.023Z,70.81
2022-11-27T14:53:56.869Z,70.84
2022-11-27T14:56:24.937Z,70.89
2022-11-27T14:58:54.357Z,70.82
2022-11-27T15:01:33.172Z,71.00
2022-11-27T15:04:24.387Z,70.91
2022-11-27T15:06:52.363Z,71.22
2022-11-27T15:09:32.570Z,71.23
2022-11-27T15:12:05.918Z,71.23
2022-11-27T15:14:32.680Z,71.18
2022-11-27T15:16:59.536Z,71.36
2022-11-27T15:19:32.894Z,71.58
2022-11-27T15:21:59.613Z,71.22
2022-11-27T15:24:34.095Z,71.32
2022-11-27T15:27:17.481Z,71.55
2022-11-27T15:29:50.202Z,71.48
2022-11-27T15:32:24.042Z,71.52
2022-11-27T15:34:54.307Z,71.48
2022-11-27T15:37:27.274Z,71.66
2022-11-27T15:39:56.110Z,71.39
2022-11-27T15:42:23.698Z,71.67
2022-11-27T15:44:57.994Z,71.68
2022-11-27T15:47:35.049Z,71.46
2022-11-27T15:50:02.172Z,71.59
2022-11-27T15:52:29.086Z,71.73
2022-11-27T15:54:56.665Z,71.99
2022-11-27T15:57:24.467Z,72.15
2022-11-27T15:59:50.977Z,72.27
2022-11-27T16:02:18.525Z,71.95
2022-11-27T16:04:45.208Z,72.24
2022-11-27T16:07:11.791Z,72.27
2022-11-27T16:09:39.722Z,72.53
2022-11-27T16:12:06.785Z,72.85
2022-11-27T16:14:33.406Z,73.09
2022-11-27T16:17:01.372Z,72.98
2022-11-27T16:19:28.476Z,72.66
2022-11-27T16:21:55.199Z,72.88
2022-11-27T16:24:21.748Z,73.03
2022-11-27T16:26:48.357Z,72.71
2022-11-27T16:29:14.888Z,73.06
2022-11-27T16:31:41.691Z,73.18
2022-11-27T16:34:08.326Z,73.02
2022-11-27T16:36:34.903Z,72.99
2022-11-27T16:39:01.507Z,73.09
2022-11-27T16:41:28.074Z,73.32
2022-11-27T16:43:56.663Z,73.12
2022-11-27T16:46:32.242Z,73.03
2022-11-27T16:49:00.775Z,73.06
2022-11-27T16:51:29.489Z,73.22
2022-11-27T16:53:58.066Z,73.59
2022-11-27T16:56:27.176Z,73.30
2022-11-27T16:58:59.359Z,73.39
2022-11-27T17:01:31.974Z,73.50
2022-11-27T17:03:59.635Z,73.95
2022-11-27T17:06:29.147Z,73.84
2022-11-27T17:08:58.424Z,73.83
2022-11-27T17:11:32.189Z,74.14
2022-11-27T17:14:01.330Z,74.26
2022-11-27T17:16:28.627Z,74.01
2022-11-27T17:18:55.541Z,73.96
2022-11-27T17:21:26.467Z,74.34
2022-11-27T17:23:57.860Z,74.53
2022-11-27T17:26:25.781Z,74.70
2022-11-27T17:28:56.166Z,74.80
2022-11-27T17:31:25.340Z,75.24
2022-11-27T17:33:54.677Z,75.37
2022-11-27T17:36:21.276Z,75.28
2022-11-27T17:38:47.870Z,75.27
2022-11-27T17:41:15.167Z,74.94
2022-11-27T17:43:42.268Z,75.20
2022-11-27T17:46:10.246Z,75.33
2022-11-27T17:48:36.956Z,75.48
2022-11-27T17:51:04.545Z,75.86
2022-11-27T17:53:32.722Z,75.73
2022-11-27T17:56:06.577Z,75.77
2022-11-27T17:58:33.545Z,75.76
2022-11-27T18:01:00.510Z,76.29
2022-11-27T18:03:30.732Z,76.07
2022-11-27T18:05:57.487Z,76.08
2022-11-27T18:08:24.179Z,76.44
2022-11-27T18:10:50.841Z,76.45
2022-11-27T18:13:17.404Z,76.60
2022-11-27T18:15:44.068Z,76.65
2022-11-27T18:18:10.750Z,76.77
2022-11-27T18:20:37.449Z,76.79
2022-11-27T18:23:04.393Z,77.00
2022-11-27T18:25:31.222Z,77.13
2022-11-27T18:27:58.542Z,77.43
2022-11-27T18:30:25.656Z,77.39
2022-11-27T18:32:52.269Z,77.48
2022-11-27T18:35:18.930Z,77.53
2022-11-27T18:37:45.441Z,77.88
2022-11-27T18:40:12.878Z,77.65
2022-11-27T18:42:39.736Z,78.10
2022-11-27T18:45:16.056Z,78.24
2022-11-27T18:47:52.043Z,78.02
2022-11-27T18:50:18.550Z,78.05
2022-11-27T18:52:45.103Z,78.40
2022-11-27T18:55:12.269Z,78.19
2022-11-27T18:57:38.786Z,78.26
2022-11-27T19:00:06.047Z,78.64
2022-11-27T19:02:32.647Z,78.72
2022-11-27T19:04:59.258Z,78.34
2022-11-27T19:07:27.856Z,78.71
2022-11-27T19:09:54.414Z,78.57
2022-11-27T19:12:20.910Z,79.13
2022-11-27T19:14:48.627Z,79.12
2022-11-27T19:17:15.386Z,79.24
2022-11-27T19:19:57.209Z,79.08
2022-11-27T19:22:23.762Z,79.36
2022-11-27T19:24:50.301Z,79.55
2022-11-27T19:27:16.903Z,79.74
2022-11-27T19:29:43.684Z,79.61
2022-11-27T19:32:10.396Z,79.56
2022-11-27T19:34:36.963Z,80.00
2022-11-27T19:37:03.529Z,79.74
2022-11-27T19:39:30.071Z,79.92
2022-11-27T19:41:58.023Z,79.84
2022-11-27T19:44:24.717Z,80.10
2022-11-27T19:46:51.276Z,79.85
2022-11-27T19:49:17.988Z,79.88
2022-11-27T19:51:45.090Z,80.50
2022-11-27T19:54:13.497Z,80.16
2022-11-27T19:56:42.314Z,80.33
2022-11-27T19:59:10.260Z,80.42
2022-11-27T20:01:38.147Z,80.31
2022-11-27T20:04:05.553Z,80.64
2022-11-27T20:06:32.428Z,80.34
2022-11-27T20:09:02.400Z,80.39
2022-11-27T20:11:34.529Z,80.40
2022-11-27T20:14:02.525Z,80.18
2022-11-27T20:16:29.574Z,80.52
2022-11-27T20:18:56.207Z,80.82
2022-11-27T20:21:24.619Z,80.67
2022-11-27T20:23:52.691Z,80.61
2022-11-27T20:26:22.374Z,80.69
2022-11-27T20:28:50.279Z,80.84
2022-11-27T20:31:24.254Z,80.75
2022-11-27T20:33:52.896Z,80.74
2022-11-27T20:36:21.270Z,80.84
2022-11-27T20:38:47.868Z,80.69
2022-11-27T20:41:19.449Z,80.87
2022-11-27T20:43:46.062Z,80.68
2022-11-27T20:46:13.730Z,80.83
2022-11-27T20:48:40.294Z,80.90
2022-11-27T20:51:08.280Z,80.76
2022-11-27T20:53:35.178Z,81.12
2022-11-27T20:56:06.623Z,80.99
2022-11-27T20:58:34.973Z,81.21
2022-11-27T21:01:02.102Z,80.81
2022-11-27T21:03:29.880Z,81.10
2022-11-27T21:05:56.467Z,81.15
2022-11-27T21:08:23.022Z,80.94
2022-11-27T21:10:50.518Z,81.41
2022-11-27T21:13:17.140Z,80.80
2022-11-27T21:15:47.891Z,81.48
2022-11-27T21:18:15.502Z,81.34
2022-11-27T21:20:42.605Z,81.33
2022-11-27T21:23:09.201Z,81.38
2022-11-27T21:25:37.937Z,81.68
2022-11-27T21:28:04.728Z,81.43
2022-11-27T21:30:31.310Z,81.51
2022-11-27T21:32:57.849Z,82.09
2022-11-27T21:35:30.065Z,81.61
2022-11-27T21:37:58.348Z,81.62
2022-11-27T21:40:24.870Z,81.80
2022-11-27T21:42:52.072Z,82.03
2022-11-27T21:45:18.655Z,81.73
2022-11-27T21:47:45.147Z,81.29
2022-11-27T21:50:13.215Z,81.35
2022-11-27T21:52:39.814Z,81.09
2022-11-27T21:55:11.651Z,81.44
2022-11-27T21:57:38.672Z,81.65
2022-11-27T22:00:06.058Z,80.90
2022-11-27T22:02:32.601Z,81.27
2022-11-27T22:04:59.148Z,81.14
2022-11-27T22:07:25.650Z,80.86
2022-11-27T22:09:52.299Z,80.81
2022-11-27T22:12:18.888Z,81.40
2022-11-27T22:14:45.429Z,81.53
2022-11-27T22:17:11.999Z,81.57
2022-11-27T22:19:42.318Z,81.62
2022-11-27T22:22:09.363Z,81.21
2022-11-27T22:24:35.937Z,81.25
2022-11-27T22:27:02.666Z,81.35
2022-11-27T22:29:29.362Z,81.36
2022-11-27T22:31:55.884Z,81.48
2022-11-27T22:34:22.416Z,81.55
2022-11-27T22:36:49.237Z,81.28
2022-11-27T22:39:15.881Z,80.78
2022-11-27T22:41:42.923Z,80.86
2022-11-27T22:44:14.393Z,81.01
2022-11-27T22:46:42.407Z,81.04
2022-11-27T22:49:11.501Z,80.85
2022-11-27T22:51:39.012Z,81.25
2022-11-27T22:54:07.739Z,81.31
2022-11-27T22:56:36.265Z,81.19
2022-11-27T22:59:31.640Z,81.07
2022-11-27T23:01:51.563Z,81.36
2022-11-27T23:04:18.081Z,81.55
2022-11-27T23:06:48.193Z,81.44
2022-11-27T23:09:16.367Z,81.07
2022-11-27T23:11:42.933Z,81.23
2022-11-27T23:14:09.533Z,81.89
2022-11-27T23:16:36.438Z,81.89
2022-11-27T23:19:04.097Z,81.90
2022-11-27T23:21:30.656Z,82.44
2022-11-27T23:23:57.154Z,82.60
2022-11-27T23:26:24.312Z,82.17
2022-11-27T23:28:53.605Z,82.47
2022-11-27T23:31:31.126Z,82.64
2022-11-27T23:34:01.822Z,82.57
2022-11-27T23:36:29.327Z,82.60
2022-11-27T23:38:56.073Z,82.69
2022-11-27T23:41:24.562Z,82.72
2022-11-27T23:43:52.911Z,82.81
2022-11-27T23:46:21.543Z,83.15
2022-11-27T23:48:48.240Z,83.04
2022-11-27T23:51:17.501Z,82.84
2022-11-27T23:53:44.110Z,83.00
2022-11-27T23:56:20.152Z,83.24
2022-11-27T23:58:47.723Z,82.65
